createdAt,value
2022-08-02T00:00:06.145Z,17.29
2022-08-02T00:01:06.264Z,17.39
2022-08-02T00:02:06.210Z,17.30
2022-08-02T00:03:06.136Z,17.23
2022-08-02T00:04:06.117Z,17.31
2022-08-02T00:05:06.103Z,17.29
2022-08-02T00:06:06.102Z,17.24
2022-08-02T00:07:06.090Z,17.26
2022-08-02T00:08:06.097Z,17.14
2022-08-02T00:09:06.196Z,17.19
2022-08-02T00:10:06.069Z,17.16
2022-08-02T00:11:06.053Z,17.08
2022-08-02T00:12:06.049Z,17.09
2022-08-02T00:13:06.048Z,17.12
2022-08-02T00:14:06.040Z,16.97
2022-08-02T00:15:06.020Z,16.96
2022-08-02T00:16:06.022Z,16.89
2022-08-02T00:17:07.580Z,16.90
2022-08-02T00:18:06.009Z,16.93
2022-08-02T00:19:05.981Z,16.79
2022-08-02T00:20:06.980Z,16.93
2022-08-02T00:21:05.974Z,16.79
2022-08-02T00:22:05.967Z,16.84
2022-08-02T00:23:05.963Z,16.76
2022-08-02T00:24:29.982Z,16.79
2022-08-02T00:25:06.940Z,16.72
2022-08-02T00:26:05.930Z,16.71
2022-08-02T00:27:09.652Z,16.68
2022-08-02T00:28:05.925Z,16.75
2022-08-02T00:29:05.915Z,16.65
2022-08-02T00:30:05.905Z,16.68
2022-08-02T00:31:05.895Z,16.72
2022-08-02T00:32:55.784Z,16.56
2022-08-02T00:34:26.472Z,16.53
2022-08-02T00:34:57.860Z,16.56
2022-08-02T00:35:56.862Z,16.58
2022-08-02T00:36:56.846Z,16.41
2022-08-02T00:37:56.845Z,16.46
2022-08-02T00:38:56.855Z,16.58
2022-08-02T00:39:56.823Z,16.54
2022-08-02T00:40:58.256Z,16.50
2022-08-02T00:41:57.803Z,16.51
2022-08-02T00:42:56.804Z,16.46
2022-08-02T00:43:56.789Z,16.51
2022-08-02T00:44:56.784Z,16.47
2022-08-02T00:46:02.692Z,16.49
2022-08-02T00:46:57.759Z,16.46
2022-08-02T00:47:57.758Z,16.51
2022-08-02T00:48:56.780Z,16.47
2022-08-02T00:49:56.732Z,16.42
2022-08-02T00:50:57.743Z,16.39
2022-08-02T00:51:56.731Z,16.35
2022-08-02T00:52:56.719Z,16.36
2022-08-02T00:53:56.706Z,16.33
2022-08-02T00:54:56.695Z,16.35
2022-08-02T00:55:56.688Z,16.43
2022-08-02T00:56:56.681Z,16.32
2022-08-02T00:57:56.678Z,16.29
2022-08-02T00:58:57.656Z,16.23
2022-08-02T00:59:56.658Z,16.38
2022-08-02T01:00:56.651Z,16.33
2022-08-02T01:01:58.293Z,16.32
2022-08-02T01:02:56.633Z,16.31
2022-08-02T01:03:56.634Z,16.17
2022-08-02T01:04:57.149Z,16.26
2022-08-02T01:06:10.966Z,16.39
2022-08-02T01:06:57.593Z,16.23
2022-08-02T01:07:57.593Z,16.31
2022-08-02T01:08:56.595Z,16.26
2022-08-02T01:09:56.586Z,16.31
2022-08-02T01:10:56.573Z,16.33
2022-08-02T01:11:56.578Z,16.31
2022-08-02T01:12:56.558Z,16.13
2022-08-02T01:13:56.559Z,16.21
2022-08-02T01:14:56.547Z,16.23
2022-08-02T01:15:56.530Z,16.29
2022-08-02T01:16:56.524Z,16.26
2022-08-02T01:17:56.509Z,16.20
2022-08-02T01:18:56.519Z,16.26
2022-08-02T01:19:56.502Z,16.21
2022-08-02T01:20:57.234Z,16.16
2022-08-02T01:21:56.483Z,16.08
2022-08-02T01:23:03.767Z,16.09
2022-08-02T01:23:58.473Z,16.02
2022-08-02T01:24:56.462Z,15.92
2022-08-02T01:25:56.454Z,15.98
2022-08-02T01:26:56.442Z,15.90
2022-08-02T01:27:56.450Z,16.00
2022-08-02T01:28:56.428Z,16.01
2022-08-02T01:29:56.428Z,15.98
2022-08-02T01:30:56.408Z,15.90
2022-08-02T01:31:56.404Z,15.84
2022-08-02T01:32:56.403Z,15.82
2022-08-02T01:33:56.399Z,15.79
2022-08-02T01:34:56.378Z,15.79
2022-08-02T01:35:57.244Z,15.76
2022-08-02T01:36:56.364Z,15.67
2022-08-02T01:37:56.360Z,15.70
2022-08-02T01:38:56.353Z,15.73
2022-08-02T01:39:56.348Z,15.70
2022-08-02T01:40:56.339Z,15.65
2022-08-02T01:41:58.798Z,15.67
2022-08-02T01:42:58.165Z,15.62
2022-08-02T01:43:56.330Z,15.68
2022-08-02T01:44:56.324Z,15.65
2022-08-02T01:45:56.294Z,15.57
2022-08-02T01:46:56.292Z,15.55
2022-08-02T01:47:56.280Z,15.58
2022-08-02T01:48:56.311Z,15.55
2022-08-02T01:49:56.259Z,15.54
2022-08-02T01:50:56.253Z,15.49
2022-08-02T01:51:56.257Z,15.47
2022-08-02T01:52:56.236Z,15.43
2022-08-02T01:53:56.232Z,15.42
2022-08-02T01:54:56.225Z,15.42
2022-08-02T01:55:57.555Z,15.39
2022-08-02T01:56:56.207Z,15.46
2022-08-02T01:57:56.197Z,15.40
2022-08-02T01:58:56.190Z,15.44
2022-08-02T01:59:56.178Z,15.43
2022-08-02T02:00:56.243Z,15.47
2022-08-02T02:01:56.161Z,15.39
2022-08-02T02:02:56.156Z,15.37
2022-08-02T02:03:56.154Z,15.46
2022-08-02T02:04:56.151Z,15.44
2022-08-02T02:05:56.130Z,15.37
2022-08-02T02:06:56.126Z,15.42
2022-08-02T02:07:56.126Z,15.51
2022-08-02T02:08:56.119Z,15.44
2022-08-02T02:09:56.101Z,15.43
2022-08-02T02:10:56.106Z,15.46
2022-08-02T02:12:06.508Z,15.57
2022-08-02T02:12:57.082Z,15.40
2022-08-02T02:13:56.067Z,15.43
2022-08-02T02:14:56.058Z,15.52
2022-08-02T02:15:56.063Z,15.40
2022-08-02T02:16:56.039Z,15.47
2022-08-02T02:18:13.253Z,15.47
2022-08-02T02:18:57.028Z,15.58
2022-08-02T02:19:56.020Z,15.55
2022-08-02T02:20:56.018Z,15.51
2022-08-02T02:21:56.004Z,15.44
2022-08-02T02:22:55.997Z,15.49
2022-08-02T02:23:56.986Z,15.46
2022-08-02T02:24:55.988Z,15.46
2022-08-02T02:25:56.075Z,15.54
2022-08-02T02:26:55.978Z,15.39
2022-08-02T02:27:55.956Z,15.37
2022-08-02T02:28:55.946Z,15.33
2022-08-02T02:29:55.943Z,15.27
2022-08-02T02:30:55.938Z,15.31
2022-08-02T02:31:55.925Z,15.24
2022-08-02T02:32:55.916Z,15.19
2022-08-02T02:33:55.904Z,15.21
2022-08-02T02:34:55.898Z,15.14
2022-08-02T02:35:55.890Z,15.19
2022-08-02T02:36:55.874Z,15.18
2022-08-02T02:37:55.870Z,15.15
2022-08-02T02:38:55.863Z,15.21
2022-08-02T02:39:55.856Z,15.15
2022-08-02T02:40:55.847Z,15.15
2022-08-02T02:41:55.830Z,15.14
2022-08-02T02:42:55.826Z,15.18
2022-08-02T02:43:55.824Z,15.17
2022-08-02T02:44:55.813Z,15.10
2022-08-02T02:45:55.799Z,15.06
2022-08-02T02:46:55.797Z,15.14
2022-08-02T02:47:57.753Z,15.15
2022-08-02T02:48:55.816Z,15.09
2022-08-02T02:49:55.771Z,15.06
2022-08-02T02:50:55.769Z,15.09
2022-08-02T02:51:55.752Z,14.99
2022-08-02T02:52:55.748Z,15.07
2022-08-02T02:54:29.902Z,14.97
2022-08-02T02:54:56.733Z,14.86
2022-08-02T02:56:02.073Z,14.97
2022-08-02T02:56:56.706Z,14.99
2022-08-02T02:57:55.707Z,14.88
2022-08-02T02:58:55.700Z,14.86
2022-08-02T02:59:55.694Z,14.92
2022-08-02T03:00:55.688Z,14.94
2022-08-02T03:01:58.046Z,14.89
2022-08-02T03:02:55.656Z,14.82
2022-08-02T03:03:55.647Z,14.84
2022-08-02T03:04:58.113Z,14.77
2022-08-02T03:05:55.630Z,14.73
2022-08-02T03:06:55.629Z,14.66
2022-08-02T03:07:55.622Z,14.73
2022-08-02T03:08:55.604Z,14.77
2022-08-02T03:09:55.614Z,14.70
2022-08-02T03:10:55.598Z,14.73
2022-08-02T03:11:55.587Z,14.66
2022-08-02T03:12:55.575Z,14.65
2022-08-02T03:13:55.568Z,14.65
2022-08-02T03:14:55.571Z,14.62
2022-08-02T03:15:55.547Z,14.60
2022-08-02T03:16:56.551Z,14.54
2022-08-02T03:17:55.540Z,14.63
2022-08-02T03:18:55.529Z,14.60
2022-08-02T03:19:55.521Z,14.70
2022-08-02T03:20:55.515Z,14.66
2022-08-02T03:21:57.518Z,14.60
2022-08-02T03:22:55.517Z,14.55
2022-08-02T03:23:55.488Z,14.62
2022-08-02T03:24:55.485Z,14.60
2022-08-02T03:25:55.475Z,14.62
2022-08-02T03:26:55.489Z,14.51
2022-08-02T03:27:55.469Z,14.51
2022-08-02T03:28:55.451Z,14.44
2022-08-02T03:29:55.440Z,14.47
2022-08-02T03:30:55.437Z,14.44
2022-08-02T03:31:55.428Z,14.40
2022-08-02T03:32:55.422Z,14.44
2022-08-02T03:33:55.409Z,14.35
2022-08-02T03:34:55.407Z,14.44
2022-08-02T03:35:55.393Z,14.45
2022-08-02T03:36:55.386Z,14.32
2022-08-02T03:37:55.382Z,14.37
2022-08-02T03:38:55.376Z,14.30
2022-08-02T03:39:55.363Z,14.32
2022-08-02T03:40:55.355Z,14.29
2022-08-02T03:41:55.346Z,14.44
2022-08-02T03:42:55.350Z,14.47
2022-08-02T03:43:55.326Z,14.43
2022-08-02T03:44:55.327Z,14.41
2022-08-02T03:45:56.202Z,14.41
2022-08-02T03:46:55.320Z,14.36
2022-08-02T03:47:58.771Z,14.33
2022-08-02T03:48:55.327Z,14.26
2022-08-02T03:49:55.279Z,14.33
2022-08-02T03:50:55.278Z,14.23
2022-08-02T03:51:55.270Z,14.26
2022-08-02T03:52:55.259Z,14.28
2022-08-02T03:53:55.251Z,14.33
2022-08-02T03:54:55.242Z,14.35
2022-08-02T03:55:56.041Z,14.32
2022-08-02T03:56:56.229Z,14.33
2022-08-02T03:57:55.227Z,14.44
2022-08-02T03:58:55.215Z,14.41
2022-08-02T03:59:55.199Z,14.33
2022-08-02T04:00:55.242Z,14.44
2022-08-02T04:01:55.189Z,14.47
2022-08-02T04:02:55.190Z,14.65
2022-08-02T04:03:55.171Z,14.59
2022-08-02T04:04:55.159Z,14.68
2022-08-02T04:06:03.973Z,14.66
2022-08-02T04:06:56.138Z,14.68
2022-08-02T04:08:34.975Z,14.66
2022-08-02T04:08:56.724Z,14.66
2022-08-02T04:09:55.123Z,14.69
2022-08-02T04:10:55.105Z,14.68
2022-08-02T04:11:55.105Z,14.73
2022-08-02T04:12:55.092Z,14.73
2022-08-02T04:13:56.961Z,14.79
2022-08-02T04:14:55.129Z,14.78
2022-08-02T04:15:55.076Z,14.70
2022-08-02T04:16:55.058Z,14.81
2022-08-02T04:17:55.061Z,14.81
2022-08-02T04:18:55.043Z,14.81
2022-08-02T04:19:55.049Z,14.94
2022-08-02T04:20:55.031Z,14.89
2022-08-02T04:21:55.024Z,15.03
2022-08-02T04:22:55.017Z,15.02
2022-08-02T04:23:55.005Z,15.04
2022-08-02T04:24:55.033Z,15.09
2022-08-02T04:25:55.004Z,15.25
2022-08-02T04:26:54.995Z,15.28
2022-08-02T04:28:16.015Z,15.29
2022-08-02T04:28:55.970Z,15.33
2022-08-02T04:29:54.964Z,15.39
2022-08-02T04:30:54.961Z,15.47
2022-08-02T04:31:54.948Z,15.43
2022-08-02T04:32:54.940Z,15.22
2022-08-02T04:33:54.945Z,15.31
2022-08-02T04:35:18.059Z,15.25
2022-08-02T04:35:59.717Z,15.22
2022-08-02T04:36:55.907Z,15.25
2022-08-02T04:38:05.829Z,15.22
2022-08-02T04:38:55.902Z,15.22
2022-08-02T04:39:54.885Z,15.25
2022-08-02T04:40:54.876Z,15.15
2022-08-02T04:41:57.715Z,15.22
2022-08-02T04:42:55.863Z,15.29
2022-08-02T04:43:54.855Z,15.15
2022-08-02T04:44:54.854Z,15.14
2022-08-02T04:45:54.840Z,15.15
2022-08-02T04:46:54.843Z,15.24
2022-08-02T04:48:04.522Z,15.19
2022-08-02T04:48:55.860Z,15.24
2022-08-02T04:49:54.808Z,15.28
2022-08-02T04:50:54.796Z,15.25
2022-08-02T04:51:54.792Z,15.28
2022-08-02T04:52:54.786Z,15.22
2022-08-02T04:53:54.775Z,15.19
2022-08-02T04:54:55.762Z,15.27
2022-08-02T04:55:54.761Z,15.17
2022-08-02T04:56:54.769Z,15.19
2022-08-02T04:57:54.747Z,15.28
2022-08-02T04:58:54.748Z,15.35
2022-08-02T04:59:54.800Z,15.43
2022-08-02T05:00:54.741Z,15.49
2022-08-02T05:01:54.710Z,15.52
2022-08-02T05:02:54.710Z,15.59
2022-08-02T05:03:54.695Z,15.64
2022-08-02T05:04:54.688Z,15.72
2022-08-02T05:05:54.675Z,15.67
2022-08-02T05:06:54.673Z,15.73
2022-08-02T05:07:54.671Z,15.64
2022-08-02T05:08:54.689Z,15.64
2022-08-02T05:09:54.664Z,15.61
2022-08-02T05:10:54.634Z,15.67
2022-08-02T05:11:55.241Z,15.72
2022-08-02T05:12:54.626Z,15.65
2022-08-02T05:13:58.052Z,15.65
2022-08-02T05:14:54.603Z,15.67
2022-08-02T05:15:54.593Z,15.65
2022-08-02T05:16:54.586Z,15.75
2022-08-02T05:17:54.582Z,15.80
2022-08-02T05:18:55.291Z,15.94
2022-08-02T05:19:54.561Z,15.80
2022-08-02T05:20:58.118Z,15.84
2022-08-02T05:21:55.605Z,15.82
2022-08-02T05:22:54.824Z,15.95
2022-08-02T05:23:54.533Z,15.98
2022-08-02T05:24:55.232Z,16.13
2022-08-02T05:25:54.519Z,16.28
2022-08-02T05:26:54.511Z,16.28
2022-08-02T05:29:00.495Z,16.50
2022-08-02T05:30:00.483Z,16.50
2022-08-02T05:31:00.481Z,16.66
2022-08-02T05:32:00.466Z,16.69
2022-08-02T05:33:00.461Z,16.79
2022-08-02T05:34:00.455Z,16.93
2022-08-02T05:35:00.444Z,17.04
2022-08-02T05:36:00.446Z,17.06
2022-08-02T05:37:00.429Z,17.15
2022-08-02T05:38:00.428Z,17.46
2022-08-02T05:39:05.040Z,17.64
2022-08-02T05:40:01.073Z,17.74
2022-08-02T05:41:00.394Z,18.08
2022-08-02T05:42:00.389Z,18.28
2022-08-02T05:43:00.444Z,18.60
2022-08-02T05:44:00.373Z,18.89
2022-08-02T05:45:01.445Z,19.24
2022-08-02T05:46:02.531Z,19.55
2022-08-02T05:47:01.459Z,19.85
2022-08-02T05:48:01.476Z,20.37
2022-08-02T05:49:01.477Z,20.50
2022-08-02T05:50:01.423Z,20.63
2022-08-02T05:51:01.408Z,20.66
2022-08-02T05:52:01.406Z,20.56
2022-08-02T05:53:01.390Z,20.56
2022-08-02T05:54:01.386Z,20.63
2022-08-02T05:55:01.380Z,20.52
2022-08-02T05:56:05.362Z,20.50
2022-08-02T05:57:02.371Z,20.36
2022-08-02T05:58:01.370Z,20.37
2022-08-02T05:59:01.364Z,20.28
2022-08-02T06:00:02.789Z,20.10
2022-08-02T06:01:01.343Z,19.99
2022-08-02T06:02:01.391Z,19.94
2022-08-02T06:03:01.329Z,19.91
2022-08-02T06:04:01.305Z,19.88
2022-08-02T06:05:01.315Z,19.94
2022-08-02T06:06:01.297Z,19.79
2022-08-02T06:07:02.258Z,19.82
2022-08-02T06:08:01.296Z,19.74
2022-08-02T06:09:01.267Z,19.73
2022-08-02T06:10:01.252Z,19.74
2022-08-02T06:11:01.251Z,19.55
2022-08-02T06:12:02.506Z,19.64
2022-08-02T06:13:01.259Z,19.77
2022-08-02T06:14:01.740Z,19.77
2022-08-02T06:15:01.210Z,19.85
2022-08-02T06:16:01.212Z,20.04
2022-08-02T06:17:01.192Z,20.19
2022-08-02T06:18:01.202Z,20.29
2022-08-02T06:19:01.192Z,20.59
2022-08-02T06:20:01.204Z,20.75
2022-08-02T06:21:03.806Z,21.05
2022-08-02T06:22:32.270Z,21.24
2022-08-02T06:23:02.183Z,21.33
2022-08-02T06:24:01.138Z,21.60
2022-08-02T06:25:01.127Z,22.04
2022-08-02T06:26:01.125Z,22.23
2022-08-02T06:27:01.687Z,22.53
2022-08-02T06:28:01.127Z,22.68
2022-08-02T06:29:01.128Z,22.78
2022-08-02T06:30:01.098Z,23.03
2022-08-02T06:31:01.675Z,23.24
2022-08-02T06:32:01.076Z,23.34
2022-08-02T06:33:03.084Z,23.43
2022-08-02T06:34:01.113Z,23.68
2022-08-02T06:35:01.063Z,23.91
2022-08-02T06:36:01.101Z,24.10
2022-08-02T06:37:01.023Z,24.16
2022-08-02T06:38:01.038Z,24.14
2022-08-02T06:39:01.016Z,24.35
2022-08-02T06:40:01.690Z,24.54
2022-08-02T06:41:00.991Z,24.60
2022-08-02T06:42:00.987Z,24.81
2022-08-02T06:43:00.983Z,24.74
2022-08-02T06:44:19.613Z,25.06
2022-08-02T06:45:02.948Z,25.11
2022-08-02T06:47:07.431Z,25.08
2022-08-02T06:47:11.891Z,25.14
2022-08-02T06:48:01.939Z,25.21
2022-08-02T06:49:01.086Z,25.26
2022-08-02T06:50:01.028Z,25.50
2022-08-02T06:51:00.976Z,25.70
2022-08-02T06:52:00.904Z,25.83
2022-08-02T06:53:00.929Z,25.95
2022-08-02T06:54:00.905Z,25.83
2022-08-02T06:55:00.939Z,25.85
2022-08-02T06:56:00.896Z,25.88
2022-08-02T06:57:00.872Z,26.19
2022-08-02T06:58:00.880Z,26.28
2022-08-02T06:59:05.562Z,26.48
2022-08-02T07:00:02.849Z,26.53
2022-08-02T07:01:00.846Z,26.66
2022-08-02T07:02:00.867Z,26.81
2022-08-02T07:03:00.832Z,27.00
2022-08-02T07:04:00.808Z,27.14
2022-08-02T07:05:00.816Z,27.37
2022-08-02T07:06:00.793Z,27.36
2022-08-02T07:07:00.779Z,27.42
2022-08-02T07:08:01.803Z,27.49
2022-08-02T07:09:20.152Z,27.51
2022-08-02T07:10:02.765Z,27.58
2022-08-02T07:11:00.759Z,27.58
2022-08-02T07:12:00.779Z,27.45
2022-08-02T07:13:00.739Z,27.63
2022-08-02T07:14:00.750Z,27.67
2022-08-02T07:15:00.738Z,27.54
2022-08-02T07:16:00.719Z,27.36
2022-08-02T07:17:00.721Z,26.84
2022-08-02T07:18:00.710Z,26.63
2022-08-02T07:19:00.700Z,26.66
2022-08-02T07:20:00.686Z,26.89
2022-08-02T07:21:00.681Z,27.11
2022-08-02T07:22:01.855Z,27.21
2022-08-02T07:23:00.696Z,27.32
2022-08-02T07:24:00.664Z,27.35
2022-08-02T07:25:00.656Z,27.45
2022-08-02T07:26:02.605Z,27.45
2022-08-02T07:27:11.091Z,27.48
2022-08-02T07:28:02.642Z,27.39
2022-08-02T07:29:00.625Z,27.58
2022-08-02T07:30:00.621Z,27.52
2022-08-02T07:31:00.617Z,27.58
2022-08-02T07:32:00.593Z,27.63
2022-08-02T07:33:00.595Z,27.68
2022-08-02T07:34:00.590Z,27.71
2022-08-02T07:35:06.684Z,27.71
2022-08-02T07:36:01.633Z,27.78
2022-08-02T07:37:00.590Z,27.71
2022-08-02T07:38:02.106Z,27.82
2022-08-02T07:39:00.539Z,27.77
2022-08-02T07:40:00.542Z,27.58
2022-08-02T07:41:00.532Z,27.48
2022-08-02T07:42:00.536Z,27.63
2022-08-02T07:43:03.806Z,27.65
2022-08-02T07:44:01.504Z,27.77
2022-08-02T07:45:00.497Z,27.78
2022-08-02T07:46:01.003Z,27.85
2022-08-02T07:47:00.488Z,27.83
2022-08-02T07:48:00.489Z,27.89
2022-08-02T07:49:00.556Z,28.12
2022-08-02T07:50:00.481Z,28.29
2022-08-02T07:51:01.203Z,28.41
2022-08-02T07:52:00.454Z,28.52
2022-08-02T07:53:00.451Z,28.45
2022-08-02T07:54:02.747Z,28.42
2022-08-02T07:56:06.720Z,28.49
2022-08-02T07:57:06.726Z,28.54
2022-08-02T07:58:06.714Z,28.51
2022-08-02T07:59:06.699Z,28.62
2022-08-02T08:00:07.782Z,28.70
2022-08-02T08:01:07.843Z,28.66
2022-08-02T08:02:09.167Z,28.82
2022-08-02T08:03:08.668Z,28.96
2022-08-02T08:04:07.785Z,29.08
2022-08-02T08:05:07.746Z,29.08
2022-08-02T08:06:07.744Z,29.05
2022-08-02T08:07:07.764Z,28.69
2022-08-02T08:08:07.726Z,28.56
2022-08-02T08:09:07.714Z,28.29
2022-08-02T08:10:07.720Z,28.25
2022-08-02T08:11:07.693Z,28.27
2022-08-02T08:12:07.692Z,28.37
2022-08-02T08:13:07.681Z,28.42
2022-08-02T08:14:07.667Z,28.44
2022-08-02T08:15:07.665Z,28.32
2022-08-02T08:16:07.694Z,28.22
2022-08-02T08:17:07.645Z,27.83
2022-08-02T08:18:07.681Z,27.68
2022-08-02T08:19:07.650Z,27.85
2022-08-02T08:20:07.642Z,27.85
2022-08-02T08:21:07.615Z,28.20
2022-08-02T08:22:08.682Z,28.44
2022-08-02T08:23:07.605Z,28.59
2022-08-02T08:24:07.607Z,28.56
2022-08-02T08:25:07.584Z,28.51
2022-08-02T08:26:07.573Z,28.56
2022-08-02T08:27:07.556Z,28.67
2022-08-02T08:28:08.576Z,28.78
2022-08-02T08:29:07.551Z,28.66
2022-08-02T08:30:07.548Z,28.72
2022-08-02T08:31:07.539Z,28.86
2022-08-02T08:32:07.529Z,28.94
2022-08-02T08:33:07.533Z,29.07
2022-08-02T08:34:07.510Z,29.04
2022-08-02T08:35:07.513Z,29.13
2022-08-02T08:36:08.090Z,29.04
2022-08-02T08:37:07.498Z,29.10
2022-08-02T08:38:08.065Z,29.04
2022-08-02T08:39:09.469Z,28.86
2022-08-02T08:40:07.463Z,28.89
2022-08-02T08:41:08.294Z,28.94
2022-08-02T08:42:07.479Z,29.04
2022-08-02T08:43:07.450Z,28.82
2022-08-02T08:44:07.429Z,28.27
2022-08-02T08:45:07.423Z,27.89
2022-08-02T08:46:07.440Z,28.00
2022-08-02T08:47:07.451Z,28.15
2022-08-02T08:48:07.404Z,28.44
2022-08-02T08:49:07.398Z,28.49
2022-08-02T08:50:08.289Z,28.51
2022-08-02T08:51:07.388Z,28.59
2022-08-02T08:52:07.366Z,28.76
2022-08-02T08:53:07.371Z,28.84
2022-08-02T08:54:07.375Z,29.02
2022-08-02T08:55:07.354Z,29.07
2022-08-02T08:56:07.379Z,29.31
2022-08-02T08:57:07.337Z,29.34
2022-08-02T08:58:07.321Z,29.08
2022-08-02T08:59:07.327Z,29.17
2022-08-02T09:00:07.336Z,28.96
2022-08-02T09:01:07.404Z,29.07
2022-08-02T09:02:16.557Z,29.05
2022-08-02T09:03:08.286Z,28.60
2022-08-02T09:04:07.292Z,28.25
2022-08-02T09:05:07.260Z,28.12
2022-08-02T09:06:07.296Z,28.07
2022-08-02T09:07:07.253Z,28.01
2022-08-02T09:08:07.247Z,28.01
2022-08-02T09:09:07.229Z,28.15
2022-08-02T09:10:07.230Z,28.37
2022-08-02T09:11:07.211Z,28.41
2022-08-02T09:12:07.220Z,28.52
2022-08-02T09:13:32.375Z,28.47
2022-08-02T09:14:08.185Z,28.56
2022-08-02T09:15:07.178Z,28.59
2022-08-02T09:16:12.272Z,28.67
2022-08-02T09:17:08.684Z,28.72
2022-08-02T09:18:07.161Z,28.59
2022-08-02T09:19:07.964Z,28.59
2022-08-02T09:20:07.140Z,28.47
2022-08-02T09:21:07.130Z,28.38
2022-08-02T09:22:07.124Z,28.30
2022-08-02T09:23:07.118Z,28.20
2022-08-02T09:24:07.143Z,28.25
2022-08-02T09:25:07.140Z,28.39
2022-08-02T09:26:07.933Z,28.32
2022-08-02T09:27:07.108Z,28.12
2022-08-02T09:28:07.093Z,28.07
2022-08-02T09:29:07.073Z,27.93
2022-08-02T09:30:13.321Z,27.71
2022-08-02T09:31:08.057Z,27.60
2022-08-02T09:32:07.051Z,27.52
2022-08-02T09:33:07.042Z,27.49
2022-08-02T09:34:07.046Z,27.29
2022-08-02T09:35:07.692Z,27.22
2022-08-02T09:36:08.348Z,26.95
2022-08-02T09:37:08.659Z,26.89
2022-08-02T09:38:07.011Z,26.97
2022-08-02T09:39:07.029Z,27.03
2022-08-02T09:40:06.986Z,27.02
2022-08-02T09:41:06.984Z,26.88
2022-08-02T09:42:06.977Z,26.84
2022-08-02T09:43:06.968Z,26.93
2022-08-02T09:44:07.267Z,26.70
2022-08-02T09:45:06.947Z,26.60
2022-08-02T09:46:06.940Z,26.66
2022-08-02T09:47:06.948Z,26.66
2022-08-02T09:48:06.931Z,26.75
2022-08-02T09:49:06.994Z,26.84
2022-08-02T09:50:07.830Z,26.89
2022-08-02T09:51:08.713Z,26.95
2022-08-02T09:52:06.912Z,26.99
2022-08-02T09:53:06.906Z,27.05
2022-08-02T09:54:08.842Z,27.02
2022-08-02T09:55:07.872Z,27.12
2022-08-02T09:57:13.158Z,26.88
2022-08-02T09:58:13.154Z,26.90
2022-08-02T09:59:13.144Z,26.85
2022-08-02T10:00:20.420Z,26.70
2022-08-02T10:01:15.233Z,26.62
2022-08-02T10:02:14.640Z,26.63
2022-08-02T10:03:14.340Z,26.77
2022-08-02T10:04:21.242Z,26.77
2022-08-02T10:05:16.620Z,26.89
2022-08-02T10:06:14.191Z,26.92
2022-08-02T10:07:14.203Z,26.81
2022-08-02T10:08:14.176Z,26.95
2022-08-02T10:09:14.164Z,26.75
2022-08-02T10:10:14.226Z,26.93
2022-08-02T10:11:14.143Z,27.05
2022-08-02T10:12:14.529Z,27.10
2022-08-02T10:13:47.040Z,27.21
2022-08-02T10:14:14.114Z,27.21
2022-08-02T10:15:14.116Z,27.36
2022-08-02T10:16:14.105Z,27.32
2022-08-02T10:17:14.092Z,27.44
2022-08-02T10:18:36.950Z,27.44
2022-08-02T10:19:16.088Z,27.37
2022-08-02T10:20:14.121Z,27.44
2022-08-02T10:21:14.061Z,27.29
2022-08-02T10:22:14.619Z,27.21
2022-08-02T10:23:14.052Z,27.29
2022-08-02T10:24:14.544Z,27.25
2022-08-02T10:25:14.030Z,27.33
2022-08-02T10:26:14.032Z,27.26
2022-08-02T10:27:14.017Z,27.33
2022-08-02T10:28:16.588Z,27.40
2022-08-02T10:29:15.003Z,27.30
2022-08-02T10:30:13.990Z,27.26
2022-08-02T10:31:13.979Z,27.27
2022-08-02T10:32:14.426Z,27.35
2022-08-02T10:33:13.966Z,27.40
2022-08-02T10:34:13.960Z,27.39
2022-08-02T10:35:20.073Z,27.37
2022-08-02T10:36:14.936Z,27.49
2022-08-02T10:37:15.109Z,27.55
2022-08-02T10:38:13.939Z,27.65
2022-08-02T10:39:13.927Z,27.59
2022-08-02T10:40:14.015Z,27.55
2022-08-02T10:41:13.909Z,27.49
2022-08-02T10:42:14.353Z,27.49
2022-08-02T10:43:47.084Z,27.49
2022-08-02T10:44:24.885Z,27.52
2022-08-02T10:45:14.886Z,27.58
2022-08-02T10:46:13.866Z,27.60
2022-08-02T10:47:15.111Z,27.64
2022-08-02T10:48:13.856Z,27.64
2022-08-02T10:50:15.879Z,27.58
2022-08-02T10:51:13.845Z,27.63
2022-08-02T10:52:14.212Z,27.65
2022-08-02T10:53:13.837Z,27.73
2022-08-02T10:54:14.071Z,27.71
2022-08-02T10:55:14.904Z,27.64
2022-08-02T10:56:14.787Z,27.49
2022-08-02T10:57:15.336Z,27.37
2022-08-02T10:58:14.777Z,27.36
2022-08-02T10:59:13.753Z,27.15
2022-08-02T11:00:17.269Z,26.93
2022-08-02T11:01:14.810Z,26.84
2022-08-02T11:02:14.070Z,26.90
2022-08-02T11:03:13.737Z,26.96
2022-08-02T11:04:14.587Z,26.78
2022-08-02T11:05:13.721Z,26.63
2022-08-02T11:06:25.957Z,26.70
2022-08-02T11:07:14.691Z,26.48
2022-08-02T11:08:13.717Z,26.52
2022-08-02T11:09:13.680Z,26.43
2022-08-02T11:10:13.678Z,26.37
2022-08-02T11:11:13.671Z,26.34
2022-08-02T11:12:14.009Z,26.19
2022-08-02T11:13:13.648Z,26.07
2022-08-02T11:14:13.649Z,26.18
2022-08-02T11:15:13.634Z,26.28
2022-08-02T11:16:14.598Z,26.40
2022-08-02T11:17:13.650Z,26.51
2022-08-02T11:18:13.613Z,26.60
2022-08-02T11:19:13.614Z,26.62
2022-08-02T11:20:13.611Z,26.90
2022-08-02T11:21:14.107Z,26.92
2022-08-02T11:22:14.099Z,27.08
2022-08-02T11:23:13.562Z,27.03
2022-08-02T11:24:13.569Z,27.11
2022-08-02T11:25:14.099Z,27.05
2022-08-02T11:26:13.544Z,27.05
2022-08-02T11:27:13.576Z,26.93
2022-08-02T11:28:13.543Z,26.71
2022-08-02T11:29:15.906Z,26.84
2022-08-02T11:30:13.530Z,26.81
2022-08-02T11:31:13.530Z,26.90
2022-08-02T11:32:13.948Z,26.70
2022-08-02T11:33:13.516Z,26.70
2022-08-02T11:34:28.459Z,26.58
2022-08-02T11:35:14.472Z,26.62
2022-08-02T11:36:13.489Z,26.71
2022-08-02T11:37:13.484Z,26.65
2022-08-02T11:38:13.479Z,26.65
2022-08-02T11:39:13.683Z,26.73
2022-08-02T11:40:19.866Z,26.92
2022-08-02T11:41:14.439Z,26.88
2022-08-02T11:42:14.774Z,26.88
2022-08-02T11:43:13.401Z,26.81
2022-08-02T11:44:13.396Z,26.70
2022-08-02T11:45:20.971Z,26.70
2022-08-02T11:46:14.401Z,26.73
2022-08-02T11:47:13.375Z,26.73
2022-08-02T11:48:13.400Z,26.84
2022-08-02T11:49:13.457Z,26.75
2022-08-02T11:50:13.370Z,26.81
2022-08-02T11:51:13.349Z,26.85
2022-08-02T11:52:13.628Z,27.00
2022-08-02T11:53:13.347Z,26.99
2022-08-02T11:54:13.330Z,27.08
2022-08-02T11:55:13.312Z,27.33
2022-08-02T11:56:14.115Z,27.27
2022-08-02T11:57:18.976Z,27.22
2022-08-02T11:58:15.297Z,27.05
2022-08-02T11:59:14.627Z,27.07
2022-08-02T12:00:13.295Z,27.10
2022-08-02T12:01:13.275Z,27.08
2022-08-02T12:02:13.667Z,26.97
2022-08-02T12:03:16.551Z,27.12
2022-08-02T12:04:14.239Z,27.12
2022-08-02T12:05:13.233Z,27.27
2022-08-02T12:06:16.552Z,27.40
2022-08-02T12:07:13.233Z,27.30
2022-08-02T12:08:13.224Z,27.33
2022-08-02T12:09:17.955Z,27.39
2022-08-02T12:10:18.777Z,27.47
2022-08-02T12:11:14.194Z,27.55
2022-08-02T12:12:13.528Z,27.60
2022-08-02T12:13:13.184Z,27.78
2022-08-02T12:14:13.167Z,27.80
2022-08-02T12:15:13.182Z,28.04
2022-08-02T12:16:13.174Z,28.02
2022-08-02T12:17:13.140Z,28.14
2022-08-02T12:18:13.144Z,28.25
2022-08-02T12:19:14.350Z,28.26
2022-08-02T12:20:13.117Z,28.23
2022-08-02T12:21:13.133Z,28.22
2022-08-02T12:22:13.456Z,28.23
2022-08-02T12:23:13.131Z,28.29
2022-08-02T12:24:13.104Z,28.27
2022-08-02T12:25:13.115Z,28.30
2022-08-02T12:26:15.990Z,28.32
2022-08-02T12:27:13.073Z,28.39
2022-08-02T12:28:17.069Z,28.37
2022-08-02T12:29:14.086Z,28.42
2022-08-02T12:30:13.051Z,28.47
2022-08-02T12:31:13.049Z,28.37
2022-08-02T12:32:13.526Z,28.41
2022-08-02T12:33:13.431Z,28.41
2022-08-02T12:34:13.029Z,28.45
2022-08-02T12:35:13.007Z,28.52
2022-08-02T12:36:13.048Z,28.47
2022-08-02T12:37:12.990Z,28.47
2022-08-02T12:38:12.984Z,28.38
2022-08-02T12:39:12.982Z,28.54
2022-08-02T12:40:13.006Z,28.47
2022-08-02T12:41:31.147Z,28.56
2022-08-02T12:42:14.560Z,28.63
2022-08-02T12:43:12.953Z,28.63
2022-08-02T12:44:12.931Z,28.63
2022-08-02T12:45:12.932Z,28.56
2022-08-02T12:46:12.942Z,28.64
2022-08-02T12:47:12.910Z,28.66
2022-08-02T12:48:12.917Z,28.62
2022-08-02T12:49:18.261Z,28.60
2022-08-02T12:50:14.883Z,28.60
2022-08-02T12:51:12.874Z,28.64
2022-08-02T12:52:13.170Z,28.63
2022-08-02T12:53:12.898Z,28.57
2022-08-02T12:54:12.858Z,28.63
2022-08-02T12:55:13.864Z,28.69
2022-08-02T12:56:12.835Z,28.69
2022-08-02T12:57:12.909Z,28.72